createdAt,value
2019-04-29T03:02:15.187Z,5.55
2019-04-29T03:04:51.849Z,4.50
2019-04-29T03:07:21.880Z,4.85
2019-04-29T03:09:51.422Z,6.45
2019-04-29T03:12:21.015Z,5.15
2019-04-29T03:14:50.308Z,5.22
2019-04-29T03:17:20.103Z,5.10
2019-04-29T03:20:09.270Z,5.17
2019-04-29T03:22:48.432Z,5.33
2019-04-29T03:25:17.697Z,6.47
2019-04-29T03:27:47.181Z,5.08
2019-04-29T03:30:16.617Z,8.33
2019-04-29T03:32:46.252Z,7.03
2019-04-29T03:35:15.766Z,6.25
2019-04-29T03:37:46.053Z,7.42
2019-04-29T03:40:15.299Z,6.17
2019-04-29T03:42:44.784Z,6.37
2019-04-29T03:45:14.112Z,4.83
2019-04-29T03:47:43.368Z,7.95
2019-04-29T03:50:12.700Z,6.70
2019-04-29T03:52:41.961Z,5.60
2019-04-29T03:55:11.279Z,4.25
2019-04-29T03:57:40.539Z,3.60
2019-04-29T04:00:12.005Z,6.67
2019-04-29T04:02:48.992Z,5.70
2019-04-29T04:05:20.108Z,4.72
2019-04-29T04:07:51.070Z,5.58
2019-04-29T04:10:20.344Z,6.35
2019-04-29T04:12:49.603Z,5.50
2019-04-29T04:15:19.160Z,6.28
2019-04-29T04:17:50.349Z,4.28
2019-04-29T04:20:19.771Z,4.58
2019-04-29T04:22:49.132Z,7.80
2019-04-29T04:25:18.473Z,5.22
2019-04-29T04:27:48.236Z,5.50
2019-04-29T04:30:18.930Z,4.92
2019-04-29T04:32:48.220Z,6.83
2019-04-29T04:35:17.477Z,7.50
2019-04-29T04:37:46.966Z,6.58
2019-04-29T04:40:19.032Z,9.05
2019-04-29T04:42:48.283Z,7.97
2019-04-29T04:45:17.931Z,5.70
2019-04-29T04:47:47.266Z,5.75
2019-04-29T04:50:16.749Z,6.10
2019-04-29T04:52:46.020Z,7.83
2019-04-29T04:55:15.399Z,9.18
2019-04-29T04:57:46.163Z,8.10
2019-04-29T05:00:22.926Z,9.03
2019-04-29T05:02:52.183Z,6.67
2019-04-29T05:05:21.504Z,6.20
2019-04-29T05:07:50.768Z,8.70
2019-04-29T05:10:20.039Z,6.30
2019-04-29T05:12:49.532Z,7.78
2019-04-29T05:15:18.790Z,7.37
2019-04-29T05:17:48.054Z,8.88
2019-04-29T05:20:17.391Z,6.72
2019-04-29T05:22:58.970Z,6.80
2019-04-29T05:25:32.909Z,7.55
2019-04-29T05:28:03.874Z,7.65
2019-04-29T05:30:33.142Z,10.15
2019-04-29T05:33:02.395Z,9.93
2019-04-29T05:35:33.303Z,10.72
2019-04-29T05:38:04.204Z,6.53
2019-04-29T05:40:37.868Z,8.15
2019-04-29T05:43:09.135Z,11.35
2019-04-29T05:45:56.254Z,8.33
2019-04-29T05:48:27.616Z,11.33
2019-04-29T05:51:14.570Z,9.13
2019-04-29T05:53:54.680Z,10.00
2019-04-29T05:56:19.339Z,11.03
2019-04-29T05:58:48.599Z,11.50
2019-04-29T06:01:19.499Z,9.78
2019-04-29T06:03:48.765Z,10.40
2019-04-29T06:06:18.047Z,10.78
2019-04-29T06:08:47.298Z,10.78
2019-04-29T06:11:16.795Z,10.15
2019-04-29T06:13:46.050Z,11.75
2019-04-29T06:16:20.343Z,13.48
2019-04-29T06:18:46.791Z,14.45
2019-04-29T06:21:16.052Z,14.40
2019-04-29T06:23:45.319Z,12.33
2019-04-29T06:26:14.807Z,9.50
2019-04-29T06:28:44.059Z,11.25
2019-04-29T06:31:13.330Z,11.73
2019-04-29T06:33:42.590Z,12.68
2019-04-29T06:36:11.850Z,12.00
2019-04-29T06:38:41.118Z,11.97
2019-04-29T06:41:10.938Z,9.93
2019-04-29T06:43:40.212Z,11.60
2019-04-29T06:46:09.706Z,12.07
2019-04-29T06:48:38.963Z,11.45
2019-04-29T06:51:08.239Z,11.40
2019-04-29T06:53:37.494Z,9.78
2019-04-29T06:56:09.126Z,13.45
2019-04-29T06:58:38.458Z,13.85
2019-04-29T07:01:08.226Z,14.23
2019-04-29T07:03:37.458Z,11.10
2019-04-29T07:06:06.887Z,11.08
2019-04-29T07:08:36.141Z,12.43
2019-04-29T07:11:05.696Z,11.15
2019-04-29T07:13:34.963Z,9.90
2019-04-29T07:16:04.308Z,12.15
2019-04-29T07:18:33.562Z,12.98
2019-04-29T07:21:02.827Z,14.35
2019-04-29T07:23:32.080Z,13.43
2019-04-29T07:26:01.347Z,12.37
2019-04-29T07:28:30.611Z,11.03
2019-04-29T07:31:02.500Z,14.47
2019-04-29T07:33:31.060Z,15.93
2019-04-29T07:36:10.743Z,12.45
2019-04-29T07:38:41.324Z,13.45
2019-04-29T07:41:02.255Z,13.83
2019-04-29T07:43:31.519Z,14.60
2019-04-29T07:46:03.745Z,10.58
2019-04-29T07:48:36.794Z,14.20
2019-04-29T07:51:05.982Z,9.25
2019-04-29T07:53:44.805Z,9.43
2019-04-29T07:56:06.663Z,10.98
2019-04-29T07:58:37.366Z,8.85
2019-04-29T08:01:06.947Z,10.30
2019-04-29T08:03:36.214Z,13.78
2019-04-29T08:06:05.482Z,8.38
2019-04-29T08:08:35.139Z,8.35
2019-04-29T08:11:04.545Z,10.38
2019-04-29T08:13:34.538Z,7.95
2019-04-29T08:16:04.842Z,8.63
2019-04-29T08:18:34.145Z,9.63
2019-04-29T08:21:03.443Z,9.48
2019-04-29T08:23:40.909Z,6.83
2019-04-29T08:26:04.508Z,9.18
2019-04-29T08:28:33.934Z,9.90
2019-04-29T08:31:03.497Z,9.00
2019-04-29T08:33:32.766Z,13.53
2019-04-29T08:36:02.100Z,8.88
2019-04-29T08:38:31.430Z,8.85
2019-04-29T08:41:00.939Z,9.63
2019-04-29T08:43:34.487Z,9.58
2019-04-29T08:46:08.106Z,12.40
2019-04-29T08:48:37.362Z,9.40
2019-04-29T08:51:06.630Z,12.13
2019-04-29T08:53:36.209Z,8.50
2019-04-29T08:56:09.572Z,11.63
2019-04-29T08:58:39.335Z,11.73
2019-04-29T09:01:07.833Z,8.95
2019-04-29T09:03:40.531Z,11.10
2019-04-29T09:06:08.194Z,11.50
2019-04-29T09:08:37.494Z,9.78
2019-04-29T09:11:08.133Z,12.20
2019-04-29T09:13:37.767Z,10.82
2019-04-29T09:16:07.100Z,8.63
2019-04-29T09:18:36.367Z,11.10
2019-04-29T09:21:05.626Z,10.23
2019-04-29T09:23:36.543Z,13.43
2019-04-29T09:26:16.873Z,14.70
2019-04-29T09:28:49.443Z,10.95
2019-04-29T09:31:17.690Z,12.98
2019-04-29T09:33:49.211Z,8.15
2019-04-29T09:36:17.947Z,9.75
2019-04-29T09:38:47.218Z,11.12
2019-04-29T09:41:30.630Z,12.18
2019-04-29T09:44:14.655Z,12.53
2019-04-29T09:46:43.937Z,9.65
2019-04-29T09:49:13.206Z,11.65
2019-04-29T09:51:42.466Z,10.20
2019-04-29T09:54:14.601Z,10.38
2019-04-29T09:56:43.974Z,11.80
2019-04-29T09:59:23.855Z,8.33
2019-04-29T10:02:11.450Z,8.43
2019-04-29T10:04:56.411Z,12.00
2019-04-29T10:07:19.407Z,10.45
2019-04-29T10:09:56.833Z,10.32
2019-04-29T10:12:19.630Z,8.15
2019-04-29T10:14:49.143Z,11.80
2019-04-29T10:17:20.086Z,10.05
2019-04-29T10:20:08.148Z,9.08
2019-04-29T10:22:37.546Z,10.48
2019-04-29T10:25:07.875Z,10.48
2019-04-29T10:27:38.331Z,9.90
2019-04-29T10:30:09.315Z,10.93
2019-04-29T10:32:42.486Z,9.23
2019-04-29T10:35:10.809Z,8.73
2019-04-29T10:37:41.155Z,10.50
2019-04-29T10:40:19.430Z,15.60
2019-04-29T10:42:56.083Z,11.57
2019-04-29T10:45:29.672Z,9.53
2019-04-29T10:48:05.986Z,9.15
2019-04-29T10:50:47.179Z,12.58
2019-04-29T10:53:15.444Z,8.90
2019-04-29T10:55:45.322Z,14.78
2019-04-29T10:58:15.451Z,10.38
2019-04-29T11:00:52.826Z,10.30
2019-04-29T11:03:25.030Z,9.45
2019-04-29T11:06:00.551Z,7.35
2019-04-29T11:08:26.965Z,10.35
2019-04-29T11:11:02.457Z,9.70
2019-04-29T11:13:28.331Z,9.55
2019-04-29T11:15:57.726Z,7.67
2019-04-29T11:18:27.062Z,9.13
2019-04-29T11:20:56.394Z,7.00
2019-04-29T11:23:29.959Z,7.90
2019-04-29T11:26:18.931Z,11.48
2019-04-29T11:28:51.279Z,7.90
2019-04-29T11:31:19.940Z,10.98
2019-04-29T11:33:59.546Z,6.67
2019-04-29T11:36:29.667Z,6.60
2019-04-29T11:38:58.930Z,5.80
2019-04-29T11:41:30.170Z,5.85
2019-04-29T11:43:59.736Z,6.45
2019-04-29T11:46:28.987Z,5.03
2019-04-29T11:48:59.890Z,5.80
2019-04-29T11:51:43.863Z,5.78
2019-04-29T11:54:08.235Z,4.58
2019-04-29T11:56:39.320Z,6.25
2019-04-29T11:59:11.565Z,6.60
2019-04-29T12:01:47.233Z,5.47
2019-04-29T12:04:33.557Z,5.78
2019-04-29T12:07:01.132Z,5.50
2019-04-29T12:09:32.196Z,3.98
2019-04-29T12:12:01.686Z,6.15
2019-04-29T12:14:41.338Z,4.20
2019-04-29T12:17:21.394Z,3.90
2019-04-29T12:20:04.006Z,4.70
2019-04-29T12:22:47.180Z,8.08
2019-04-29T12:25:06.542Z,5.60
2019-04-29T12:27:37.003Z,5.30
2019-04-29T12:30:10.206Z,6.45
2019-04-29T12:32:43.543Z,3.95
2019-04-29T12:35:21.733Z,5.60
2019-04-29T12:38:11.016Z,6.03
2019-04-29T12:40:55.214Z,4.37
2019-04-29T12:43:33.158Z,6.05
2019-04-29T12:46:04.059Z,4.55
2019-04-29T12:48:33.332Z,4.28
2019-04-29T12:51:02.864Z,4.58
2019-04-29T12:53:32.123Z,4.53
2019-04-29T12:56:01.399Z,4.67
2019-04-29T12:58:30.669Z,4.00
2019-04-29T13:01:06.027Z,4.40
2019-04-29T13:03:41.024Z,4.40
2019-04-29T13:06:38.728Z,3.95
2019-04-29T13:09:01.736Z,6.35
2019-04-29T13:11:45.555Z,5.58
2019-04-29T13:14:03.786Z,4.62
2019-04-29T13:16:34.767Z,6.15
2019-04-29T13:19:12.251Z,4.15
2019-04-29T13:21:39.359Z,6.45
2019-04-29T13:24:21.543Z,3.98
2019-04-29T13:26:42.607Z,5.37
2019-04-29T13:29:09.753Z,4.85
2019-04-29T13:31:39.521Z,6.08
2019-04-29T13:34:23.562Z,5.97
2019-04-29T13:36:41.506Z,5.55
2019-04-29T13:39:10.834Z,5.33
2019-04-29T13:41:56.067Z,5.55
2019-04-29T13:44:11.890Z,5.12
2019-04-29T13:46:54.054Z,9.05
2019-04-29T13:49:30.047Z,6.03
2019-04-29T13:52:00.954Z,6.95
2019-04-29T13:54:30.228Z,6.05
2019-04-29T13:57:07.682Z,7.22
2019-04-29T13:59:32.142Z,7.17
2019-04-29T14:02:11.871Z,7.58
2019-04-29T14:04:48.348Z,8.35
2019-04-29T14:07:19.932Z,6.87
2019-04-29T14:09:49.222Z,5.33
2019-04-29T14:12:47.249Z,8.08
2019-04-29T14:14:49.442Z,5.75
2019-04-29T14:17:26.407Z,8.05
2019-04-29T14:19:49.674Z,9.18
2019-04-29T14:22:22.325Z,6.05
2019-04-29T14:24:50.343Z,6.25
2019-04-29T14:27:25.198Z,6.37
2019-04-29T14:29:51.561Z,7.65
2019-04-29T14:32:33.297Z,6.15
2019-04-29T14:34:53.574Z,6.58
2019-04-29T14:37:25.356Z,6.10
2019-04-29T14:39:53.813Z,6.78
2019-04-29T14:42:39.534Z,7.17
2019-04-29T14:47:57.039Z,8.45
2019-04-29T14:50:26.591Z,4.65
2019-04-29T14:52:55.894Z,6.05
2019-04-29T14:55:27.086Z,7.00
2019-04-29T14:58:02.357Z,5.50
2019-04-29T15:00:51.140Z,5.95
2019-04-29T15:03:25.100Z,6.95
2019-04-29T15:05:55.410Z,5.05
2019-04-29T15:08:24.993Z,6.87
2019-04-29T15:10:54.388Z,5.78
2019-04-29T15:13:24.991Z,6.28
2019-04-29T15:16:13.933Z,7.85
2019-04-29T15:18:51.125Z,5.50
2019-04-29T15:21:32.692Z,5.87
2019-04-29T15:24:02.023Z,6.08
2019-04-29T15:26:31.282Z,7.53
2019-04-29T15:29:00.783Z,6.78
2019-04-29T15:31:30.082Z,9.00
2019-04-29T15:33:59.568Z,9.10
2019-04-29T15:36:30.794Z,8.50
2019-04-29T15:39:09.860Z,9.28
2019-04-29T15:41:33.279Z,6.15
2019-04-29T15:44:07.607Z,6.33
2019-04-29T15:46:45.498Z,8.20
2019-04-29T15:49:06.027Z,7.00
2019-04-29T15:51:36.275Z,9.33
2019-04-29T15:54:09.136Z,8.80
2019-04-29T15:56:38.671Z,8.98
2019-04-29T15:59:09.896Z,9.03
2019-04-29T16:01:41.469Z,9.28
2019-04-29T16:04:11.519Z,10.80
2019-04-29T16:06:42.427Z,12.80
2019-04-29T16:09:23.607Z,12.30
2019-04-29T16:12:13.955Z,10.38
2019-04-29T16:14:40.919Z,12.28
2019-04-29T16:17:10.175Z,10.72
2019-04-29T16:19:39.462Z,9.55
2019-04-29T16:22:12.853Z,11.68
2019-04-29T16:24:39.717Z,10.90
2019-04-29T16:27:10.470Z,9.73
2019-04-29T16:29:39.843Z,10.93
2019-04-29T16:32:10.746Z,12.10
2019-04-29T16:34:45.124Z,11.75
2019-04-29T16:37:10.990Z,11.55
2019-04-29T16:39:40.638Z,12.98
2019-04-29T16:42:11.538Z,13.68
2019-04-29T16:44:41.470Z,12.05
2019-04-29T16:47:13.109Z,13.70
2019-04-29T16:49:42.612Z,12.37
2019-04-29T16:52:11.906Z,12.00
2019-04-29T16:54:41.175Z,9.20
2019-04-29T16:57:10.470Z,9.68
2019-04-29T16:59:39.782Z,12.88
2019-04-29T17:02:09.904Z,9.23
2019-04-29T17:04:39.194Z,12.80
2019-04-29T17:07:13.552Z,10.55
2019-04-29T17:09:59.431Z,11.38
2019-04-29T17:12:36.091Z,11.60
2019-04-29T17:15:04.423Z,18.20
2019-04-29T17:17:34.403Z,18.75
2019-04-29T17:20:05.507Z,21.87
2019-04-29T17:22:35.705Z,21.23
2019-04-29T17:25:07.731Z,19.80
2019-04-29T17:27:55.067Z,16.93
2019-04-29T17:30:46.685Z,11.20
2019-04-29T17:33:28.029Z,11.57
2019-04-29T17:38:21.887Z,10.28
2019-04-29T17:40:51.513Z,12.55
2019-04-29T17:43:25.383Z,9.65
2019-04-29T17:46:04.767Z,11.08
2019-04-29T17:48:41.576Z,12.73
2019-04-29T17:51:12.639Z,11.43
2019-04-29T17:53:43.554Z,11.10
2019-04-29T17:56:30.726Z,12.88
2019-04-29T17:59:05.958Z,13.18
2019-04-29T18:04:20.293Z,13.32
2019-04-29T18:07:08.201Z,11.15
2019-04-29T18:09:36.623Z,11.50
2019-04-29T18:12:07.692Z,10.18
2019-04-29T18:14:41.554Z,12.80
2019-04-29T18:17:09.010Z,12.25
2019-04-29T18:19:42.831Z,12.78
2019-04-29T18:22:16.479Z,12.95
2019-04-29T18:24:56.295Z,13.83
2019-04-29T18:27:27.446Z,14.95
2019-04-29T18:29:56.725Z,13.85
2019-04-29T18:32:35.032Z,17.00
2019-04-29T18:34:57.563Z,17.82
2019-04-29T18:37:30.374Z,18.75
2019-04-29T18:40:02.163Z,19.50
2019-04-29T18:42:29.971Z,18.98
2019-04-29T18:45:00.394Z,19.80
2019-04-29T18:47:34.791Z,19.98
2019-04-29T18:50:01.152Z,19.82
2019-04-29T18:52:30.506Z,16.35
2019-04-29T18:54:59.786Z,18.45
2019-04-29T18:57:30.939Z,14.95
2019-04-29T19:00:06.761Z,13.62
2019-04-29T19:02:32.383Z,16.73
2019-04-29T19:05:03.735Z,14.47
2019-04-29T19:07:37.170Z,15.60
2019-04-29T19:10:07.668Z,14.10
2019-04-29T19:12:39.292Z,15.70
2019-04-29T19:15:11.631Z,16.00
2019-04-29T19:17:40.380Z,17.32
2019-04-29T19:20:12.938Z,16.42
2019-04-29T19:22:44.147Z,12.73
2019-04-29T19:25:15.425Z,15.28
2019-04-29T19:27:45.491Z,14.40
2019-04-29T19:30:21.081Z,14.95
2019-04-29T19:32:55.615Z,15.35
2019-04-29T19:35:20.947Z,14.83
2019-04-29T19:37:50.566Z,17.52
2019-04-29T19:40:19.916Z,13.00
2019-04-29T19:42:49.191Z,14.20
2019-04-29T19:45:18.698Z,13.78
2019-04-29T19:47:52.979Z,15.08
2019-04-29T19:50:19.824Z,14.38
2019-04-29T19:52:49.354Z,15.95
2019-04-29T19:55:18.636Z,15.30
2019-04-29T19:57:51.823Z,15.55
2019-04-29T20:00:19.599Z,16.70
2019-04-29T20:02:50.886Z,17.35
2019-04-29T20:05:23.900Z,16.10
2019-04-29T20:07:55.657Z,16.95
2019-04-29T20:10:28.400Z,20.50
2019-04-29T20:12:57.754Z,20.08
2019-04-29T20:15:31.154Z,19.10
2019-04-29T20:17:59.954Z,22.82
2019-04-29T20:20:38.376Z,23.30
2019-04-29T20:23:05.965Z,24.40
2019-04-29T20:25:38.285Z,23.87
2019-04-29T20:28:12.665Z,27.60
2019-04-29T20:30:37.711Z,21.17
2019-04-29T20:33:09.511Z,27.22
2019-04-29T20:35:40.504Z,27.70
2019-04-29T20:38:09.179Z,27.35
2019-04-29T20:40:42.879Z,28.95
2019-04-29T20:43:09.685Z,27.30
2019-04-29T20:45:38.983Z,26.55
2019-04-29T20:48:11.117Z,27.93
2019-04-29T20:50:40.972Z,30.57
2019-04-29T20:53:12.141Z,33.05
2019-04-29T20:55:41.570Z,32.33
2019-04-29T20:58:10.954Z,30.37
2019-04-29T21:00:40.741Z,29.80
2019-04-29T21:03:11.586Z,29.50
2019-04-29T21:05:48.334Z,26.55
2019-04-29T21:08:16.540Z,30.05
2019-04-29T21:10:46.361Z,29.30
2019-04-29T21:13:20.370Z,32.50
2019-04-29T21:18:27.114Z,32.40
2019-04-29T21:20:59.654Z,29.87
2019-04-29T21:23:31.440Z,36.80
2019-04-29T21:26:00.432Z,34.90
2019-04-29T21:28:31.570Z,36.17
2019-04-29T21:31:00.738Z,30.88
2019-04-29T21:33:31.259Z,37.58
2019-04-29T21:36:02.198Z,37.20
2019-04-29T21:38:35.211Z,37.42
2019-04-29T21:41:08.878Z,37.08
2019-04-29T21:43:47.090Z,38.23
2019-04-29T21:46:19.698Z,37.38
2019-04-29T21:48:45.708Z,37.88
2019-04-29T21:51:15.441Z,35.50
2019-04-29T21:53:46.011Z,34.98
2019-04-29T21:56:16.027Z,39.45
2019-04-29T21:58:45.390Z,38.38
2019-04-29T22:01:15.266Z,37.73
2019-04-29T22:03:45.750Z,37.98
2019-04-29T22:06:15.332Z,43.92
2019-04-29T22:08:45.292Z,38.83
2019-04-29T22:11:15.531Z,37.08
2019-04-29T22:13:45.674Z,38.53
2019-04-29T22:16:15.735Z,39.63
2019-04-29T22:18:51.778Z,36.98
2019-04-29T22:21:21.900Z,43.28
2019-04-29T22:23:51.000Z,32.55
2019-04-29T22:26:23.282Z,35.43
2019-04-29T22:28:53.240Z,35.45
2019-04-29T22:31:26.883Z,38.53
2019-04-29T22:33:53.046Z,32.98
2019-04-29T22:36:22.607Z,32.95
2019-04-29T22:38:52.147Z,34.45
2019-04-29T22:41:37.919Z,32.40
2019-04-29T22:46:44.766Z,34.75
2019-04-29T22:49:12.698Z,37.40
2019-04-29T22:51:41.974Z,34.20
2019-04-29T22:54:11.250Z,37.33
2019-04-29T22:56:40.778Z,34.98
2019-04-29T22:59:10.102Z,35.35
2019-04-29T23:01:42.240Z,32.60
2019-04-29T23:04:14.548Z,34.30
2019-04-29T23:06:44.667Z,33.80
2019-04-29T23:09:13.199Z,31.27
2019-04-29T23:11:42.606Z,36.10
2019-04-29T23:14:11.882Z,36.68
2019-04-29T23:16:41.934Z,39.88
2019-04-29T23:19:13.951Z,35.45
2019-04-29T23:21:47.271Z,36.63
2019-04-29T23:24:25.700Z,34.65
2019-04-29T23:26:55.130Z,30.32
2019-04-29T23:29:25.530Z,32.38
2019-04-29T23:31:55.390Z,32.90
2019-04-29T23:34:29.127Z,38.42
2019-04-29T23:36:55.698Z,34.75
2019-04-29T23:39:24.980Z,32.28
2019-04-29T23:41:55.411Z,34.78
2019-04-29T23:44:24.792Z,35.15
2019-04-29T23:46:54.062Z,33.88
2019-04-29T23:49:25.045Z,37.58
2019-04-29T23:51:54.611Z,34.78
2019-04-29T23:54:25.222Z,36.77
2019-04-29T23:57:01.946Z,33.23
2019-04-29T23:59:38.950Z,36.30
